sensor_id;sensor_type;location;lat;lon;timestamp;temperature;humidity
43346;DHT22;28937;51.160;4.146;2023-11-21T00:01:01;13.10;99.90
43346;DHT22;28937;51.160;4.146;2023-11-21T00:03:30;13.10;99.90
43346;DHT22;28937;51.160;4.146;2023-11-21T00:05:55;13.10;99.90
43346;DHT22;28937;51.160;4.146;2023-11-21T00:08:21;13.10;99.90
43346;DHT22;28937;51.160;4.146;2023-11-21T00:10:46;13.10;99.90
43346;DHT22;28937;51.160;4.146;2023-11-21T00:13:13;13.10;99.90
43346;DHT22;28937;51.160;4.146;2023-11-21T00:15:38;13.10;99.90
43346;DHT22;28937;51.160;4.146;2023-11-21T00:18:04;13.10;99.90
43346;DHT22;28937;51.160;4.146;2023-11-21T00:20:30;13.10;99.90
43346;DHT22;28937;51.160;4.146;2023-11-21T00:22:56;13.10;99.90
43346;DHT22;28937;51.160;4.146;2023-11-21T00:25:21;13.10;99.90
43346;DHT22;28937;51.160;4.146;2023-11-21T00:27:47;13.10;99.90
43346;DHT22;28937;51.160;4.146;2023-11-21T00:30:13;13.10;99.90
43346;DHT22;28937;51.160;4.146;2023-11-21T00:32:39;13.10;99.90
43346;DHT22;28937;51.160;4.146;2023-11-21T00:35:05;13.00;99.90
43346;DHT22;28937;51.160;4.146;2023-11-21T00:37:31;13.10;99.90
43346;DHT22;28937;51.160;4.146;2023-11-21T00:39:57;13.10;99.90
43346;DHT22;28937;51.160;4.146;2023-11-21T00:42:23;13.00;99.90
43346;DHT22;28937;51.160;4.146;2023-11-21T00:44:48;13.00;99.90
43346;DHT22;28937;51.160;4.146;2023-11-21T00:47:14;13.00;99.90
43346;DHT22;28937;51.160;4.146;2023-11-21T00:49:39;13.00;99.90
43346;DHT22;28937;51.160;4.146;2023-11-21T00:52:06;13.00;99.90
43346;DHT22;28937;51.160;4.146;2023-11-21T00:54:31;13.10;99.90
43346;DHT22;28937;51.160;4.146;2023-11-21T00:56:57;13.00;99.90
43346;DHT22;28937;51.160;4.146;2023-11-21T00:59:23;13.10;99.90
43346;DHT22;28937;51.160;4.146;2023-11-21T01:01:49;13.10;99.90
43346;DHT22;28937;51.160;4.146;2023-11-21T01:04:14;13.10;99.90
43346;DHT22;28937;51.160;4.146;2023-11-21T01:06:40;13.00;99.90
43346;DHT22;28937;51.160;4.146;2023-11-21T01:09:05;13.00;99.90
43346;DHT22;28937;51.160;4.146;2023-11-21T01:11:37;13.00;99.90
43346;DHT22;28937;51.160;4.146;2023-11-21T01:14:04;13.00;99.90
43346;DHT22;28937;51.160;4.146;2023-11-21T01:16:30;13.00;99.90
43346;DHT22;28937;51.160;4.146;2023-11-21T01:18:58;13.00;99.90
43346;DHT22;28937;51.160;4.146;2023-11-21T01:21:24;13.10;99.90
43346;DHT22;28937;51.160;4.146;2023-11-21T01:23:50;13.10;99.90
43346;DHT22;28937;51.160;4.146;2023-11-21T01:26:15;13.00;99.90
43346;DHT22;28937;51.160;4.146;2023-11-21T01:28:41;13.00;99.90
43346;DHT22;28937;51.160;4.146;2023-11-21T01:31:07;13.00;99.90
43346;DHT22;28937;51.160;4.146;2023-11-21T01:33:33;13.00;99.90
43346;DHT22;28937;51.160;4.146;2023-11-21T01:35:58;13.10;99.90
43346;DHT22;28937;51.160;4.146;2023-11-21T01:38:25;13.00;99.90
43346;DHT22;28937;51.160;4.146;2023-11-21T01:40:51;13.10;99.90
43346;DHT22;28937;51.160;4.146;2023-11-21T01:43:16;13.10;99.90
43346;DHT22;28937;51.160;4.146;2023-11-21T01:45:42;13.10;99.90
43346;DHT22;28937;51.160;4.146;2023-11-21T01:48:08;13.10;99.90
43346;DHT22;28937;51.160;4.146;2023-11-21T01:50:34;13.10;99.90
43346;DHT22;28937;51.160;4.146;2023-11-21T01:53:00;13.00;99.90
43346;DHT22;28937;51.160;4.146;2023-11-21T01:55:27;13.10;99.90
43346;DHT22;28937;51.160;4.146;2023-11-21T01:57:53;13.00;99.90
43346;DHT22;28937;51.160;4.146;2023-11-21T02:00:19;13.00;99.90
43346;DHT22;28937;51.160;4.146;2023-11-21T02:02:46;13.10;99.90
43346;DHT22;28937;51.160;4.146;2023-11-21T02:05:17;13.00;99.90
43346;DHT22;28937;51.160;4.146;2023-11-21T02:07:47;13.00;99.90
43346;DHT22;28937;51.160;4.146;2023-11-21T02:10:18;13.00;99.90
43346;DHT22;28937;51.160;4.146;2023-11-21T02:12:48;13.10;99.90
43346;DHT22;28937;51.160;4.146;2023-11-21T02:15:16;13.00;99.90
43346;DHT22;28937;51.160;4.146;2023-11-21T02:17:46;13.00;99.90
43346;DHT22;28937;51.160;4.146;2023-11-21T02:20:18;13.00;99.90
43346;DHT22;28937;51.160;4.146;2023-11-21T02:22:52;13.00;99.90
43346;DHT22;28937;51.160;4.146;2023-11-21T02:25:26;13.00;99.90
43346;DHT22;28937;51.160;4.146;2023-11-21T02:27:56;13.10;99.90
43346;DHT22;28937;51.160;4.146;2023-11-21T02:30:22;13.10;99.90
43346;DHT22;28937;51.160;4.146;2023-11-21T02:32:50;13.00;99.90
43346;DHT22;28937;51.160;4.146;2023-11-21T02:35:18;13.10;99.90
43346;DHT22;28937;51.160;4.146;2023-11-21T02:37:46;13.00;99.90
43346;DHT22;28937;51.160;4.146;2023-11-21T02:40:12;13.10;99.90
43346;DHT22;28937;51.160;4.146;2023-11-21T02:42:39;13.00;99.90
43346;DHT22;28937;51.160;4.146;2023-11-21T02:45:06;13.00;99.90
43346;DHT22;28937;51.160;4.146;2023-11-21T02:47:32;13.00;99.90
43346;DHT22;28937;51.160;4.146;2023-11-21T02:49:57;13.00;99.90
43346;DHT22;28937;51.160;4.146;2023-11-21T02:52:23;13.00;99.90
43346;DHT22;28937;51.160;4.146;2023-11-21T02:54:49;13.00;99.90
43346;DHT22;28937;51.160;4.146;2023-11-21T02:57:14;13.00;99.90
43346;DHT22;28937;51.160;4.146;2023-11-21T02:59:40;13.00;99.90
43346;DHT22;28937;51.160;4.146;2023-11-21T03:02:05;13.00;99.90
43346;DHT22;28937;51.160;4.146;2023-11-21T03:04:34;13.00;99.90
43346;DHT22;28937;51.160;4.146;2023-11-21T03:07:00;13.00;99.90
43346;DHT22;28937;51.160;4.146;2023-11-21T03:09:26;13.10;99.90
43346;DHT22;28937;51.160;4.146;2023-11-21T03:11:52;13.10;99.90
43346;DHT22;28937;51.160;4.146;2023-11-21T03:14:18;13.10;99.90
43346;DHT22;28937;51.160;4.146;2023-11-21T03:16:44;13.00;99.90
43346;DHT22;28937;51.160;4.146;2023-11-21T03:19:10;13.00;99.90
43346;DHT22;28937;51.160;4.146;2023-11-21T03:21:36;13.10;99.90
43346;DHT22;28937;51.160;4.146;2023-11-21T03:24:02;13.00;99.90
43346;DHT22;28937;51.160;4.146;2023-11-21T03:26:28;13.00;99.90
43346;DHT22;28937;51.160;4.146;2023-11-21T03:28:55;13.00;99.90
43346;DHT22;28937;51.160;4.146;2023-11-21T03:31:21;13.00;99.90
43346;DHT22;28937;51.160;4.146;2023-11-21T03:33:46;13.00;99.90
43346;DHT22;28937;51.160;4.146;2023-11-21T03:36:13;13.00;99.90
43346;DHT22;28937;51.160;4.146;2023-11-21T03:38:40;13.00;99.90
43346;DHT22;28937;51.160;4.146;2023-11-21T03:41:06;13.00;99.90
43346;DHT22;28937;51.160;4.146;2023-11-21T03:43:31;13.00;99.90
43346;DHT22;28937;51.160;4.146;2023-11-21T03:45:57;13.00;99.90
43346;DHT22;28937;51.160;4.146;2023-11-21T03:48:22;13.00;99.90
43346;DHT22;28937;51.160;4.146;2023-11-21T03:50:48;13.00;99.90
43346;DHT22;28937;51.160;4.146;2023-11-21T03:53:14;13.00;99.90
43346;DHT22;28937;51.160;4.146;2023-11-21T03:55:39;13.00;99.90
43346;DHT22;28937;51.160;4.146;2023-11-21T03:58:05;13.00;99.90
43346;DHT22;28937;51.160;4.146;2023-11-21T04:00:31;13.00;99.90
43346;DHT22;28937;51.160;4.146;2023-11-21T04:02:56;13.00;99.90
43346;DHT22;28937;51.160;4.146;2023-11-21T04:05:23;13.00;99.90
43346;DHT22;28937;51.160;4.146;2023-11-21T04:07:49;13.00;99.90
43346;DHT22;28937;51.160;4.146;2023-11-21T04:10:16;13.00;99.90
43346;DHT22;28937;51.160;4.146;2023-11-21T04:12:42;13.00;99.90
43346;DHT22;28937;51.160;4.146;2023-11-21T04:15:08;13.00;99.90
43346;DHT22;28937;51.160;4.146;2023-11-21T04:17:35;13.00;99.90
43346;DHT22;28937;51.160;4.146;2023-11-21T04:20:02;13.00;99.90
43346;DHT22;28937;51.160;4.146;2023-11-21T04:22:28;13.00;99.90
43346;DHT22;28937;51.160;4.146;2023-11-21T04:24:54;13.10;99.90
43346;DHT22;28937;51.160;4.146;2023-11-21T04:27:21;13.10;99.90
43346;DHT22;28937;51.160;4.146;2023-11-21T04:29:46;13.10;99.90
43346;DHT22;28937;51.160;4.146;2023-11-21T04:32:12;13.10;99.90
43346;DHT22;28937;51.160;4.146;2023-11-21T04:34:38;13.00;99.90
43346;DHT22;28937;51.160;4.146;2023-11-21T04:37:03;13.10;99.90
43346;DHT22;28937;51.160;4.146;2023-11-21T04:39:31;13.10;99.90
43346;DHT22;28937;51.160;4.146;2023-11-21T04:41:57;13.00;99.90
43346;DHT22;28937;51.160;4.146;2023-11-21T04:44:22;13.10;99.90
43346;DHT22;28937;51.160;4.146;2023-11-21T04:46:48;13.10;99.90
43346;DHT22;28937;51.160;4.146;2023-11-21T04:49:14;13.00;99.90
43346;DHT22;28937;51.160;4.146;2023-11-21T04:51:40;13.00;99.90
43346;DHT22;28937;51.160;4.146;2023-11-21T04:54:06;13.10;99.90
43346;DHT22;28937;51.160;4.146;2023-11-21T04:56:31;13.10;99.90
43346;DHT22;28937;51.160;4.146;2023-11-21T04:58:57;13.10;99.90
43346;DHT22;28937;51.160;4.146;2023-11-21T05:01:22;13.10;99.90
43346;DHT22;28937;51.160;4.146;2023-11-21T05:03:48;13.10;99.90
43346;DHT22;28937;51.160;4.146;2023-11-21T05:06:14;13.00;99.90
43346;DHT22;28937;51.160;4.146;2023-11-21T05:08:40;13.10;99.90
43346;DHT22;28937;51.160;4.146;2023-11-21T05:11:06;13.00;99.90
43346;DHT22;28937;51.160;4.146;2023-11-21T05:13:36;13.00;99.90
43346;DHT22;28937;51.160;4.146;2023-11-21T05:16:02;13.00;99.90
43346;DHT22;28937;51.160;4.146;2023-11-21T05:18:32;13.00;99.90
43346;DHT22;28937;51.160;4.146;2023-11-21T05:20:57;13.10;99.90
43346;DHT22;28937;51.160;4.146;2023-11-21T05:23:23;13.10;99.90
43346;DHT22;28937;51.160;4.146;2023-11-21T05:25:48;13.10;99.90
43346;DHT22;28937;51.160;4.146;2023-11-21T05:28:14;13.10;99.90
43346;DHT22;28937;51.160;4.146;2023-11-21T05:30:39;13.10;99.90
43346;DHT22;28937;51.160;4.146;2023-11-21T05:33:05;13.10;99.90
43346;DHT22;28937;51.160;4.146;2023-11-21T05:35:31;13.00;99.90
43346;DHT22;28937;51.160;4.146;2023-11-21T05:37:56;13.00;99.90
43346;DHT22;28937;51.160;4.146;2023-11-21T05:40:22;13.00;99.90
43346;DHT22;28937;51.160;4.146;2023-11-21T05:42:48;13.00;99.90
43346;DHT22;28937;51.160;4.146;2023-11-21T05:45:14;13.00;99.90
43346;DHT22;28937;51.160;4.146;2023-11-21T05:47:41;13.10;99.90
43346;DHT22;28937;51.160;4.146;2023-11-21T05:50:08;13.00;99.90
43346;DHT22;28937;51.160;4.146;2023-11-21T05:52:44;13.00;99.90
43346;DHT22;28937;51.160;4.146;2023-11-21T05:55:10;13.10;99.90
43346;DHT22;28937;51.160;4.146;2023-11-21T05:57:38;13.00;99.90
43346;DHT22;28937;51.160;4.146;2023-11-21T06:00:09;13.00;99.90
43346;DHT22;28937;51.160;4.146;2023-11-21T06:02:37;13.00;99.90
43346;DHT22;28937;51.160;4.146;2023-11-21T06:05:04;13.10;99.90
43346;DHT22;28937;51.160;4.146;2023-11-21T06:07:29;13.10;99.90
43346;DHT22;28937;51.160;4.146;2023-11-21T06:09:55;13.10;99.90
43346;DHT22;28937;51.160;4.146;2023-11-21T06:12:20;13.10;99.90
43346;DHT22;28937;51.160;4.146;2023-11-21T06:14:46;13.10;99.90
43346;DHT22;28937;51.160;4.146;2023-11-21T06:17:13;13.10;99.90
43346;DHT22;28937;51.160;4.146;2023-11-21T06:19:39;13.20;99.90
43346;DHT22;28937;51.160;4.146;2023-11-21T06:22:05;13.20;99.90
43346;DHT22;28937;51.160;4.146;2023-11-21T06:24:31;13.20;99.90
43346;DHT22;28937;51.160;4.146;2023-11-21T06:26:57;13.30;99.90
43346;DHT22;28937;51.160;4.146;2023-11-21T06:29:22;13.20;99.90
43346;DHT22;28937;51.160;4.146;2023-11-21T06:31:48;13.20;99.90
43346;DHT22;28937;51.160;4.146;2023-11-21T06:34:14;13.20;99.90
43346;DHT22;28937;51.160;4.146;2023-11-21T06:36:40;13.30;99.90
43346;DHT22;28937;51.160;4.146;2023-11-21T06:39:05;13.30;99.90
43346;DHT22;28937;51.160;4.146;2023-11-21T06:41:33;13.20;99.90
43346;DHT22;28937;51.160;4.146;2023-11-21T06:43:59;13.30;99.90
43346;DHT22;28937;51.160;4.146;2023-11-21T06:46:24;13.30;99.90
43346;DHT22;28937;51.160;4.146;2023-11-21T06:48:50;13.30;99.90
43346;DHT22;28937;51.160;4.146;2023-11-21T06:51:16;13.30;99.90
43346;DHT22;28937;51.160;4.146;2023-11-21T06:53:41;13.30;99.90
43346;DHT22;28937;51.160;4.146;2023-11-21T06:56:17;13.30;99.90
43346;DHT22;28937;51.160;4.146;2023-11-21T06:58:44;13.30;99.90
43346;DHT22;28937;51.160;4.146;2023-11-21T07:01:11;13.40;99.90
43346;DHT22;28937;51.160;4.146;2023-11-21T07:03:37;13.30;99.90
43346;DHT22;28937;51.160;4.146;2023-11-21T07:06:03;13.30;99.90
43346;DHT22;28937;51.160;4.146;2023-11-21T07:08:29;13.40;99.90
43346;DHT22;28937;51.160;4.146;2023-11-21T07:10:54;13.30;99.90
43346;DHT22;28937;51.160;4.146;2023-11-21T07:13:20;13.30;99.90
43346;DHT22;28937;51.160;4.146;2023-11-21T07:15:47;13.40;99.90
43346;DHT22;28937;51.160;4.146;2023-11-21T07:18:13;13.40;99.90
43346;DHT22;28937;51.160;4.146;2023-11-21T07:20:39;13.40;99.90
43346;DHT22;28937;51.160;4.146;2023-11-21T07:23:04;13.40;99.90
43346;DHT22;28937;51.160;4.146;2023-11-21T07:25:31;13.50;99.90
43346;DHT22;28937;51.160;4.146;2023-11-21T07:27:57;13.50;99.90
43346;DHT22;28937;51.160;4.146;2023-11-21T07:30:23;13.50;99.90
43346;DHT22;28937;51.160;4.146;2023-11-21T07:32:49;13.60;99.90
43346;DHT22;28937;51.160;4.146;2023-11-21T07:35:14;13.80;99.90
43346;DHT22;28937;51.160;4.146;2023-11-21T07:37:40;13.80;99.90
43346;DHT22;28937;51.160;4.146;2023-11-21T07:40:06;14.00;99.90
43346;DHT22;28937;51.160;4.146;2023-11-21T07:42:34;14.10;99.90
43346;DHT22;28937;51.160;4.146;2023-11-21T07:44:59;14.30;99.90
43346;DHT22;28937;51.160;4.146;2023-11-21T07:47:25;14.40;99.90
43346;DHT22;28937;51.160;4.146;2023-11-21T07:49:53;14.40;99.90
43346;DHT22;28937;51.160;4.146;2023-11-21T07:52:18;14.50;99.90
43346;DHT22;28937;51.160;4.146;2023-11-21T07:54:46;14.60;99.90
43346;DHT22;28937;51.160;4.146;2023-11-21T07:57:12;14.70;99.90
43346;DHT22;28937;51.160;4.146;2023-11-21T07:59:42;14.70;99.90
43346;DHT22;28937;51.160;4.146;2023-11-21T08:02:07;14.80;99.90
43346;DHT22;28937;51.160;4.146;2023-11-21T08:04:33;14.80;99.90
43346;DHT22;28937;51.160;4.146;2023-11-21T08:07:01;14.80;99.90
43346;DHT22;28937;51.160;4.146;2023-11-21T08:09:27;14.80;99.90
43346;DHT22;28937;51.160;4.146;2023-11-21T08:11:52;14.70;99.90
43346;DHT22;28937;51.160;4.146;2023-11-21T08:14:18;14.70;99.90
43346;DHT22;28937;51.160;4.146;2023-11-21T08:16:44;14.70;99.90
43346;DHT22;28937;51.160;4.146;2023-11-21T08:19:10;14.80;99.90
43346;DHT22;28937;51.160;4.146;2023-11-21T08:21:36;14.80;99.90
43346;DHT22;28937;51.160;4.146;2023-11-21T08:24:05;14.80;99.90
43346;DHT22;28937;51.160;4.146;2023-11-21T08:26:30;14.70;99.90
43346;DHT22;28937;51.160;4.146;2023-11-21T08:28:56;14.80;99.90
43346;DHT22;28937;51.160;4.146;2023-11-21T08:31:28;14.70;99.90
43346;DHT22;28937;51.160;4.146;2023-11-21T08:33:54;14.70;99.90
43346;DHT22;28937;51.160;4.146;2023-11-21T08:36:24;14.70;99.90
43346;DHT22;28937;51.160;4.146;2023-11-21T08:38:50;14.70;99.90
43346;DHT22;28937;51.160;4.146;2023-11-21T08:41:17;14.60;99.90
43346;DHT22;28937;51.160;4.146;2023-11-21T08:43:49;14.60;99.90
43346;DHT22;28937;51.160;4.146;2023-11-21T08:46:15;14.60;99.90
43346;DHT22;28937;51.160;4.146;2023-11-21T08:48:43;14.60;99.90
43346;DHT22;28937;51.160;4.146;2023-11-21T08:51:10;14.60;99.90
43346;DHT22;28937;51.160;4.146;2023-11-21T08:53:36;14.60;99.90
43346;DHT22;28937;51.160;4.146;2023-11-21T08:56:03;14.60;99.90
43346;DHT22;28937;51.160;4.146;2023-11-21T08:58:30;14.60;99.90
43346;DHT22;28937;51.160;4.146;2023-11-21T09:00:57;14.60;99.90
43346;DHT22;28937;51.160;4.146;2023-11-21T09:03:23;14.60;99.90
43346;DHT22;28937;51.160;4.146;2023-11-21T09:05:48;14.60;99.90
43346;DHT22;28937;51.160;4.146;2023-11-21T09:08:14;14.60;99.90
43346;DHT22;28937;51.160;4.146;2023-11-21T09:10:39;14.60;99.90
43346;DHT22;28937;51.160;4.146;2023-11-21T09:13:05;14.60;99.90
43346;DHT22;28937;51.160;4.146;2023-11-21T09:15:31;14.60;99.90
43346;DHT22;28937;51.160;4.146;2023-11-21T09:17:56;14.60;99.90
43346;DHT22;28937;51.160;4.146;2023-11-21T09:20:22;14.60;99.90
43346;DHT22;28937;51.160;4.146;2023-11-21T09:22:48;14.70;99.90
43346;DHT22;28937;51.160;4.146;2023-11-21T09:25:14;14.70;99.90
43346;DHT22;28937;51.160;4.146;2023-11-21T09:27:40;14.70;99.90
43346;DHT22;28937;51.160;4.146;2023-11-21T09:30:06;14.80;99.90
43346;DHT22;28937;51.160;4.146;2023-11-21T09:32:35;14.90;99.90
43346;DHT22;28937;51.160;4.146;2023-11-21T09:35:03;14.90;99.90
43346;DHT22;28937;51.160;4.146;2023-11-21T09:37:28;15.00;99.90
43346;DHT22;28937;51.160;4.146;2023-11-21T09:39:54;15.10;99.90
43346;DHT22;28937;51.160;4.146;2023-11-21T09:42:27;15.10;99.90
43346;DHT22;28937;51.160;4.146;2023-11-21T09:45:04;15.10;99.90
43346;DHT22;28937;51.160;4.146;2023-11-21T09:47:35;14.90;99.90
43346;DHT22;28937;51.160;4.146;2023-11-21T09:50:05;14.70;99.90
43346;DHT22;28937;51.160;4.146;2023-11-21T09:55:26;14.50;99.90
43346;DHT22;28937;51.160;4.146;2023-11-21T09:57:54;14.40;99.90
43346;DHT22;28937;51.160;4.146;2023-11-21T10:00:21;14.40;99.90
43346;DHT22;28937;51.160;4.146;2023-11-21T10:02:49;14.40;99.90
43346;DHT22;28937;51.160;4.146;2023-11-21T10:05:15;14.40;99.90
43346;DHT22;28937;51.160;4.146;2023-11-21T10:07:43;14.40;99.90
43346;DHT22;28937;51.160;4.146;2023-11-21T10:10:10;14.40;99.90
43346;DHT22;28937;51.160;4.146;2023-11-21T10:12:36;14.40;99.90
43346;DHT22;28937;51.160;4.146;2023-11-21T10:15:07;14.40;99.90
43346;DHT22;28937;51.160;4.146;2023-11-21T10:17:35;14.30;99.90
43346;DHT22;28937;51.160;4.146;2023-11-21T10:20:10;14.40;99.90
43346;DHT22;28937;51.160;4.146;2023-11-21T10:22:41;14.30;99.90
43346;DHT22;28937;51.160;4.146;2023-11-21T10:25:08;14.40;99.90
43346;DHT22;28937;51.160;4.146;2023-11-21T10:27:37;14.40;99.90
43346;DHT22;28937;51.160;4.146;2023-11-21T10:30:07;14.40;99.90
43346;DHT22;28937;51.160;4.146;2023-11-21T10:32:33;14.40;99.90
43346;DHT22;28937;51.160;4.146;2023-11-21T10:35:00;14.40;99.90
43346;DHT22;28937;51.160;4.146;2023-11-21T10:37:32;14.40;99.90
43346;DHT22;28937;51.160;4.146;2023-11-21T10:40:01;14.40;99.90
43346;DHT22;28937;51.160;4.146;2023-11-21T10:42:27;14.40;99.90
43346;DHT22;28937;51.160;4.146;2023-11-21T10:44:54;14.40;99.90
43346;DHT22;28937;51.160;4.146;2023-11-21T10:47:20;14.50;99.90
43346;DHT22;28937;51.160;4.146;2023-11-21T10:49:51;14.50;99.90
43346;DHT22;28937;51.160;4.146;2023-11-21T10:52:19;14.50;99.90
43346;DHT22;28937;51.160;4.146;2023-11-21T10:54:46;14.50;99.90
43346;DHT22;28937;51.160;4.146;2023-11-21T10:57:15;14.50;99.90
43346;DHT22;28937;51.160;4.146;2023-11-21T10:59:47;14.50;99.90
43346;DHT22;28937;51.160;4.146;2023-11-21T11:02:25;14.50;99.90
43346;DHT22;28937;51.160;4.146;2023-11-21T11:04:54;14.50;99.90
43346;DHT22;28937;51.160;4.146;2023-11-21T11:07:26;14.50;99.90
43346;DHT22;28937;51.160;4.146;2023-11-21T11:09:54;14.50;99.90
43346;DHT22;28937;51.160;4.146;2023-11-21T11:12:20;14.50;99.90
43346;DHT22;28937;51.160;4.146;2023-11-21T11:14:47;14.50;99.90
43346;DHT22;28937;51.160;4.146;2023-11-21T11:17:14;14.50;99.90
43346;DHT22;28937;51.160;4.146;2023-11-21T11:19:40;14.60;99.90
43346;DHT22;28937;51.160;4.146;2023-11-21T11:25:05;14.60;99.90
43346;DHT22;28937;51.160;4.146;2023-11-21T11:28:07;14.50;99.90
43346;DHT22;28937;51.160;4.146;2023-11-21T11:33:57;14.60;99.90
43346;DHT22;28937;51.160;4.146;2023-11-21T11:38:52;14.60;99.90
43346;DHT22;28937;51.160;4.146;2023-11-21T11:41:25;14.50;99.90
43346;DHT22;28937;51.160;4.146;2023-11-21T11:43:53;14.60;99.90
43346;DHT22;28937;51.160;4.146;2023-11-21T11:46:18;14.60;99.90
43346;DHT22;28937;51.160;4.146;2023-11-21T11:48:48;14.60;99.90
43346;DHT22;28937;51.160;4.146;2023-11-21T11:51:14;14.50;99.90
43346;DHT22;28937;51.160;4.146;2023-11-21T11:53:43;14.60;99.90
43346;DHT22;28937;51.160;4.146;2023-11-21T11:56:28;14.60;99.90
43346;DHT22;28937;51.160;4.146;2023-11-21T11:58:57;14.60;99.90
43346;DHT22;28937;51.160;4.146;2023-11-21T12:01:26;14.60;99.90
43346;DHT22;28937;51.160;4.146;2023-11-21T12:06:36;14.60;99.90
43346;DHT22;28937;51.160;4.146;2023-11-21T12:09:02;14.60;99.90
43346;DHT22;28937;51.160;4.146;2023-11-21T12:11:32;14.60;99.90
43346;DHT22;28937;51.160;4.146;2023-11-21T12:13:58;14.70;99.90
43346;DHT22;28937;51.160;4.146;2023-11-21T12:16:25;14.60;99.90
43346;DHT22;28937;51.160;4.146;2023-11-21T12:18:53;14.70;99.90
43346;DHT22;28937;51.160;4.146;2023-11-21T12:21:20;14.60;99.90
43346;DHT22;28937;51.160;4.146;2023-11-21T12:23:46;14.60;99.90
43346;DHT22;28937;51.160;4.146;2023-11-21T12:26:13;14.70;99.90
43346;DHT22;28937;51.160;4.146;2023-11-21T12:28:39;14.70;99.90
43346;DHT22;28937;51.160;4.146;2023-11-21T12:31:05;14.70;99.90
43346;DHT22;28937;51.160;4.146;2023-11-21T12:33:35;14.60;99.90
43346;DHT22;28937;51.160;4.146;2023-11-21T12:36:01;14.70;99.90
43346;DHT22;28937;51.160;4.146;2023-11-21T12:38:34;14.60;99.90
43346;DHT22;28937;51.160;4.146;2023-11-21T12:41:00;14.70;99.90
43346;DHT22;28937;51.160;4.146;2023-11-21T12:43:26;14.70;99.90
43346;DHT22;28937;51.160;4.146;2023-11-21T12:46:10;14.70;99.90
43346;DHT22;28937;51.160;4.146;2023-11-21T12:48:40;14.60;99.90
43346;DHT22;28937;51.160;4.146;2023-11-21T12:51:10;14.70;99.90
43346;DHT22;28937;51.160;4.146;2023-11-21T12:53:41;14.70;99.90
43346;DHT22;28937;51.160;4.146;2023-11-21T12:56:10;14.70;99.90
43346;DHT22;28937;51.160;4.146;2023-11-21T12:58:37;14.80;99.90
43346;DHT22;28937;51.160;4.146;2023-11-21T13:01:05;14.90;99.90
43346;DHT22;28937;51.160;4.146;2023-11-21T13:03:31;14.90;99.90
43346;DHT22;28937;51.160;4.146;2023-11-21T13:05:58;15.00;99.90
43346;DHT22;28937;51.160;4.146;2023-11-21T13:08:25;15.00;99.90
43346;DHT22;28937;51.160;4.146;2023-11-21T13:10:53;15.00;99.90
43346;DHT22;28937;51.160;4.146;2023-11-21T13:13:22;15.00;99.90
43346;DHT22;28937;51.160;4.146;2023-11-21T13:15:50;15.00;99.90
43346;DHT22;28937;51.160;4.146;2023-11-21T13:18:16;15.00;99.90
43346;DHT22;28937;51.160;4.146;2023-11-21T13:20:43;15.00;99.90
43346;DHT22;28937;51.160;4.146;2023-11-21T13:23:09;15.00;99.90
43346;DHT22;28937;51.160;4.146;2023-11-21T13:25:38;15.00;99.90
43346;DHT22;28937;51.160;4.146;2023-11-21T13:28:06;15.00;99.90
43346;DHT22;28937;51.160;4.146;2023-11-21T13:30:32;15.00;99.90
43346;DHT22;28937;51.160;4.146;2023-11-21T13:33:04;15.00;99.90
43346;DHT22;28937;51.160;4.146;2023-11-21T13:35:35;15.00;99.90
43346;DHT22;28937;51.160;4.146;2023-11-21T13:38:08;15.00;99.90
43346;DHT22;28937;51.160;4.146;2023-11-21T13:40:35;15.00;99.90
43346;DHT22;28937;51.160;4.146;2023-11-21T13:43:12;14.90;99.90
43346;DHT22;28937;51.160;4.146;2023-11-21T13:45:39;14.90;99.90
43346;DHT22;28937;51.160;4.146;2023-11-21T13:48:06;15.00;99.90
43346;DHT22;28937;51.160;4.146;2023-11-21T13:50:43;15.00;99.90
43346;DHT22;28937;51.160;4.146;2023-11-21T13:53:35;14.90;99.90
43346;DHT22;28937;51.160;4.146;2023-11-21T13:56:03;15.00;99.90
43346;DHT22;28937;51.160;4.146;2023-11-21T13:58:29;15.00;99.90
43346;DHT22;28937;51.160;4.146;2023-11-21T14:01:12;15.00;99.90
43346;DHT22;28937;51.160;4.146;2023-11-21T14:03:59;14.90;99.90
43346;DHT22;28937;51.160;4.146;2023-11-21T14:06:38;15.00;99.90
43346;DHT22;28937;51.160;4.146;2023-11-21T14:09:19;15.00;99.90
43346;DHT22;28937;51.160;4.146;2023-11-21T14:11:58;15.00;99.90
43346;DHT22;28937;51.160;4.146;2023-11-21T14:14:26;14.90;99.90
43346;DHT22;28937;51.160;4.146;2023-11-21T14:16:55;14.90;99.90
43346;DHT22;28937;51.160;4.146;2023-11-21T14:19:32;14.90;99.90
43346;DHT22;28937;51.160;4.146;2023-11-21T14:21:59;14.90;99.90
43346;DHT22;28937;51.160;4.146;2023-11-21T14:24:25;14.90;99.90
43346;DHT22;28937;51.160;4.146;2023-11-21T14:26:51;14.90;99.90
43346;DHT22;28937;51.160;4.146;2023-11-21T14:29:18;14.90;99.90
43346;DHT22;28937;51.160;4.146;2023-11-21T14:31:48;14.90;99.90
43346;DHT22;28937;51.160;4.146;2023-11-21T14:34:15;14.90;99.90
43346;DHT22;28937;51.160;4.146;2023-11-21T14:36:42;14.90;99.90
43346;DHT22;28937;51.160;4.146;2023-11-21T14:39:09;14.90;99.90
43346;DHT22;28937;51.160;4.146;2023-11-21T14:41:45;15.00;99.90
43346;DHT22;28937;51.160;4.146;2023-11-21T14:44:11;14.90;99.90
43346;DHT22;28937;51.160;4.146;2023-11-21T14:46:38;15.00;99.90
43346;DHT22;28937;51.160;4.146;2023-11-21T14:49:05;14.90;99.90
43346;DHT22;28937;51.160;4.146;2023-11-21T14:51:53;14.90;99.90
43346;DHT22;28937;51.160;4.146;2023-11-21T14:54:30;14.90;99.90
43346;DHT22;28937;51.160;4.146;2023-11-21T14:57:06;14.90;99.90
43346;DHT22;28937;51.160;4.146;2023-11-21T14:59:36;14.80;99.90
43346;DHT22;28937;51.160;4.146;2023-11-21T15:02:01;14.90;99.90
43346;DHT22;28937;51.160;4.146;2023-11-21T15:04:43;14.90;99.90
43346;DHT22;28937;51.160;4.146;2023-11-21T15:07:09;14.80;99.90
43346;DHT22;28937;51.160;4.146;2023-11-21T15:09:36;14.80;99.90
43346;DHT22;28937;51.160;4.146;2023-11-21T15:12:07;14.80;99.90
43346;DHT22;28937;51.160;4.146;2023-11-21T15:14:50;14.90;99.90
43346;DHT22;28937;51.160;4.146;2023-11-21T15:17:19;14.80;99.90
43346;DHT22;28937;51.160;4.146;2023-11-21T15:19:56;14.90;99.90
43346;DHT22;28937;51.160;4.146;2023-11-21T15:22:25;14.90;99.90
43346;DHT22;28937;51.160;4.146;2023-11-21T15:24:53;14.90;99.90
43346;DHT22;28937;51.160;4.146;2023-11-21T15:27:19;15.00;99.90
43346;DHT22;28937;51.160;4.146;2023-11-21T15:29:45;15.10;99.90
43346;DHT22;28937;51.160;4.146;2023-11-21T15:32:11;15.10;99.90
43346;DHT22;28937;51.160;4.146;2023-11-21T15:34:38;15.20;99.90
43346;DHT22;28937;51.160;4.146;2023-11-21T15:37:05;15.20;99.90
43346;DHT22;28937;51.160;4.146;2023-11-21T15:39:33;15.30;99.90
43346;DHT22;28937;51.160;4.146;2023-11-21T15:41:59;15.20;99.90
43346;DHT22;28937;51.160;4.146;2023-11-21T15:44:27;15.30;99.90
43346;DHT22;28937;51.160;4.146;2023-11-21T15:46:54;15.30;99.90